Time;durP1;ratioP1;P1;durP2;ratioP2;P2;SDS_P1;SDS_P2;PMS_P1;PMS_P2;Temp;Humidity;BMP_temperature;BMP_pressure;BME280_temperature;BME280_humidity;BME280_pressure;Samples;Min_cycle;Max_cycle;Signal;HPM_P1;HPM_P2
2022/12/15 00:39:13;;;;;;;15.90;6.70;;;-1.00;99.90;;;;;;5068783;28;20095;-42
2022/12/15 00:41:38;;;;;;;16.40;6.05;;;-1.00;99.90;;;;;;5068315;28;20469;-41
2022/12/15 00:44:04;;;;;;;18.55;7.20;;;-1.10;99.90;;;;;;5056840;28;20431;-41
2022/12/15 01:22:04;;;;;;;14.25;6.43;;;-1.10;99.90;;;;;;5060482;28;20048;-40
2022/12/15 01:24:30;;;;;;;15.37;6.00;;;-1.10;99.90;;;;;;5071953;28;20485;-43
2022/12/15 01:26:56;;;;;;;13.55;5.75;;;-1.10;99.90;;;;;;5071641;28;20112;-41
2022/12/15 01:29:22;;;;;;;9.80;5.88;;;-1.10;99.90;;;;;;5071623;28;20021;-43
2022/12/15 01:31:48;;;;;;;12.85;6.70;;;-1.10;99.90;;;;;;5059107;28;20044;-43
2022/12/15 01:34:18;;;;;;;12.02;6.10;;;-1.10;99.90;;;;;;5071600;28;20063;-41
2022/12/15 01:36:45;;;;;;;17.35;7.15;;;-1.20;99.90;;;;;;5072006;28;20169;-41
2022/12/15 01:39:11;;;;;;;16.42;6.32;;;-1.20;99.90;;;;;;5072686;28;20020;-46
2022/12/15 01:41:37;;;;;;;11.63;6.93;;;-1.20;99.90;;;;;;5053008;28;20041;-42
2022/12/15 01:44:24;;;;;;;11.20;5.88;;;-1.30;99.90;;;;;;5052746;28;20021;-42
2022/12/15 01:46:54;;;;;;;12.35;4.97;;;-1.30;99.90;;;;;;5064174;28;20039;-41
2022/12/15 01:49:39;;;;;;;11.95;6.03;;;-1.30;99.90;;;;;;5072690;28;20024;-40
2022/12/15 01:52:07;;;;;;;11.40;6.13;;;-1.30;99.90;;;;;;5072599;28;20548;-39
2022/12/15 01:54:45;;;;;;;12.15;5.57;;;-1.30;99.90;;;;;;5065307;28;20017;-39
2022/12/15 01:57:17;;;;;;;15.70;6.80;;;-1.40;99.90;;;;;;5051876;28;20048;-40
2022/12/15 01:59:49;;;;;;;18.63;5.63;;;-1.40;99.90;;;;;;5052471;28;20481;-39
2022/12/15 02:02:17;;;;;;;11.60;6.28;;;-1.30;99.90;;;;;;5051967;28;20068;-39
2022/12/15 02:04:44;;;;;;;;;;;-1.40;99.90;;;;;;5064944;28;20039;-40
2022/12/15 02:07:15;;;;;;;14.77;5.97;;;-1.40;99.90;;;;;;5072271;28;19908;-58
2022/12/15 02:09:44;;;;;;;11.18;5.43;;;-1.30;99.90;;;;;;5054218;28;20120;-38
2022/12/15 02:12:20;;;;;;;16.27;6.72;;;-1.40;99.90;;;;;;5052256;28;20104;-39
2022/12/15 02:14:54;;;;;;;15.32;6.47;;;-1.30;99.90;;;;;;5051851;28;20123;-48
2022/12/15 02:17:38;;;;;;;13.10;5.80;;;-1.40;99.90;;;;;;5052220;28;20525;-39
2022/12/15 02:20:12;;;;;;;15.73;6.60;;;-1.40;99.90;;;;;;5055090;28;20037;-40
2022/12/15 02:22:58;;;;;;;20.40;6.97;;;-1.40;99.90;;;;;;5055982;28;20120;-39
2022/12/15 02:25:55;;;;;;;14.25;6.18;;;-1.40;99.90;;;;;;5066252;28;20492;-39
2022/12/15 02:28:42;;;;;;;14.63;6.38;;;-1.40;99.90;;;;;;5057343;28;20500;-41
2022/12/15 02:31:49;;;;;;;11.77;6.53;;;-1.40;99.90;;;;;;5056659;28;20472;-39
2022/12/15 02:34:46;;;;;;;13.57;6.35;;;-1.40;99.90;;;;;;5059340;28;20468;-39
2022/12/15 02:37:23;;;;;;;12.07;5.47;;;-1.40;99.90;;;;;;5065312;28;20435;-42
2022/12/15 02:39:48;;;;;;;13.45;5.75;;;-1.40;99.90;;;;;;5060380;28;20425;-40
2022/12/15 02:42:14;;;;;;;12.23;5.68;;;-1.50;99.90;;;;;;5060955;28;20099;-41
2022/12/15 02:45:15;;;;;;;14.13;6.80;;;-1.50;99.90;;;;;;5060739;28;20397;-57
2022/12/15 02:47:45;;;;;;;13.13;6.00;;;-1.50;99.90;;;;;;5055691;28;20319;-40
2022/12/15 02:50:28;;;;;;;12.43;6.13;;;-1.50;99.90;;;;;;5055575;28;20366;-39
2022/12/15 02:53:20;;;;;;;17.40;6.78;;;-1.50;99.90;;;;;;5054069;28;20547;-31
2022/12/15 02:56:08;;;;;;;14.85;5.88;;;-1.50;99.90;;;;;;5055752;28;20029;-36
2022/12/15 02:58:46;;;;;;;13.52;6.82;;;-1.40;99.90;;;;;;5075075;28;20115;-34
2022/12/15 03:01:33;;;;;;;13.65;6.30;;;-1.50;99.90;;;;;;5074875;28;20492;-32
2022/12/15 03:04:04;;;;;;;13.57;6.45;;;-1.50;99.90;;;;;;5065202;28;20063;-31
2022/12/15 03:06:29;;;;;;;13.90;6.60;;;-1.50;99.90;;;;;;5054461;28;20087;-35
2022/12/15 03:08:55;;;;;;;15.45;6.28;;;-1.50;99.90;;;;;;5054448;28;20033;-34
2022/12/15 03:11:21;;;;;;;13.90;6.03;;;-1.50;99.90;;;;;;5064332;28;20028;-42
2022/12/15 03:13:47;;;;;;;12.27;5.90;;;-1.40;99.90;;;;;;5056032;28;20033;-40
2022/12/15 03:16:12;;;;;;;18.45;6.18;;;-1.40;99.90;;;;;;5055632;28;20040;-41
2022/12/15 03:18:38;;;;;;;15.13;6.22;;;-1.40;99.90;;;;;;5054970;28;20503;-41
2022/12/15 03:21:04;;;;;;;17.08;7.43;;;-1.40;99.90;;;;;;5054882;28;20025;-40
2022/12/15 03:23:30;;;;;;;13.45;6.13;;;-1.40;99.90;;;;;;5068702;28;20047;-34
2022/12/15 03:25:56;;;;;;;12.00;5.53;;;-1.50;99.90;;;;;;5055078;28;20033;-39
2022/12/15 03:28:22;;;;;;;13.68;5.88;;;-1.50;99.90;;;;;;5063029;28;20021;-40
2022/12/15 03:30:48;;;;;;;13.77;5.78;;;-1.40;99.90;;;;;;5074063;28;20031;-40
2022/12/15 03:33:14;;;;;;;14.73;5.78;;;-1.40;99.90;;;;;;5064348;28;20035;-39
2022/12/15 03:35:40;;;;;;;16.50;6.30;;;-1.40;99.90;;;;;;5064488;28;20032;-42
2022/12/15 03:38:06;;;;;;;12.75;5.70;;;-1.40;99.90;;;;;;5057301;28;20634;-43
2022/12/15 03:40:31;;;;;;;11.15;5.85;;;-1.40;99.90;;;;;;5057444;28;20052;-52
2022/12/15 03:42:57;;;;;;;14.13;6.57;;;-1.40;99.90;;;;;;5061420;28;20036;-39
2022/12/15 03:45:26;;;;;;;14.68;6.45;;;-1.40;99.90;;;;;;5055040;28;20104;-40
2022/12/15 03:47:53;;;;;;;10.43;6.03;;;-1.40;99.90;;;;;;5054155;28;20499;-40
2022/12/15 03:50:21;;;;;;;13.65;6.95;;;-1.40;99.90;;;;;;5052904;28;20515;-40
2022/12/15 03:52:52;;;;;;;13.45;6.00;;;-1.30;99.90;;;;;;5054216;28;20087;-39
2022/12/15 03:58:03;;;;;;;24.02;6.93;;;-1.20;99.90;;;;;;5054502;28;20051;-39
2022/12/15 04:00:29;;;;;;;13.82;6.50;;;-1.30;99.90;;;;;;5073852;28;20020;-41
2022/12/15 04:02:54;;;;;;;14.13;6.35;;;-1.30;99.90;;;;;;5058788;28;20041;-39
2022/12/15 04:05:25;;;;;;;11.68;5.95;;;-1.30;99.90;;;;;;5053751;28;20056;-40
2022/12/15 04:07:51;;;;;;;11.93;5.35;;;-1.30;99.90;;;;;;5053926;28;20033;-43
2022/12/15 04:10:17;;;;;;;14.38;6.43;;;-1.30;99.90;;;;;;5053739;28;20039;-41
2022/12/15 04:12:42;;;;;;;14.48;6.20;;;-1.30;99.90;;;;;;5053760;28;20528;-41
2022/12/15 04:15:09;;;;;;;19.17;5.47;;;-1.20;99.90;;;;;;5071531;28;20048;-40
2022/12/15 04:17:36;;;;;;;14.57;5.97;;;-1.20;99.90;;;;;;5073578;28;20096;-39
2022/12/15 04:20:09;;;;;;;12.85;5.82;;;-1.20;99.90;;;;;;5059399;28;20051;-40
2022/12/15 04:22:46;;;;;;;17.15;6.53;;;-1.20;99.90;;;;;;5053440;28;20035;-40
2022/12/15 05:31:54;;;;;;;11.02;5.65;;;-1.20;99.90;;;;;;5052749;28;20040;-34
2022/12/15 05:34:25;;;;;;;12.30;5.22;;;-1.20;99.90;;;;;;5052947;28;20024;-34
2022/12/15 05:36:51;;;;;;;11.45;5.65;;;-1.20;99.90;;;;;;5052737;28;20025;-32
2022/12/15 05:39:17;;;;;;;20.67;5.82;;;-1.20;99.90;;;;;;5054134;28;20072;-32
2022/12/15 05:41:42;;;;;;;11.02;5.45;;;-1.20;99.90;;;;;;5052397;28;20028;-33
2022/12/15 05:44:09;;;;;;;11.68;5.78;;;-1.20;99.90;;;;;;5052666;28;20021;-35
2022/12/15 05:46:35;;;;;;;16.27;5.97;;;-1.20;99.90;;;;;;5052599;28;20386;-32
2022/12/15 05:49:08;;;;;;;12.27;5.82;;;-1.30;99.90;;;;;;5051846;28;20021;-32
2022/12/15 05:51:37;;;;;;;17.40;5.40;;;-1.30;99.90;;;;;;5052521;28;20104;-39
2022/12/15 05:54:03;;;;;;;15.75;5.90;;;-1.30;99.90;;;;;;5064461;28;20021;-40
2022/12/15 05:56:29;;;;;;;15.43;6.32;;;-1.40;99.90;;;;;;5070500;28;20094;-40
2022/12/15 05:58:56;;;;;;;12.80;6.18;;;-1.40;99.90;;;;;;5056330;28;20029;-39
2022/12/15 06:01:23;;;;;;;15.95;6.18;;;-1.40;99.90;;;;;;5056841;28;20037;-41
2022/12/15 06:03:48;;;;;;;13.98;5.93;;;-1.30;99.90;;;;;;5054681;28;20484;-40
2022/12/15 06:06:14;;;;;;;14.43;6.13;;;-1.30;99.90;;;;;;5056112;28;20021;-34
2022/12/15 06:08:41;;;;;;;13.25;5.78;;;-1.30;99.90;;;;;;5055842;28;20017;-30
2022/12/15 06:11:10;;;;;;;13.70;5.55;;;-1.30;99.90;;;;;;5055907;28;20025;-34
2022/12/15 06:13:36;;;;;;;10.35;5.25;;;-1.30;99.90;;;;;;5061882;28;20595;-38
2022/12/15 06:16:10;;;;;;;11.25;5.38;;;-1.30;99.90;;;;;;5068600;28;20096;-34
2022/12/15 06:18:38;;;;;;;11.82;6.13;;;-1.30;99.90;;;;;;5068748;28;20040;-30
2022/12/15 06:21:07;;;;;;;12.52;5.63;;;-1.30;99.90;;;;;;5064402;28;20468;-38
2022/12/15 06:23:33;;;;;;;14.77;6.60;;;-1.30;99.90;;;;;;5060264;28;20025;-32
2022/12/15 06:26:18;;;;;;;11.18;5.82;;;-1.30;99.90;;;;;;5069865;28;20031;-41
2022/12/15 06:28:45;;;;;;;12.52;5.55;;;-1.30;99.90;;;;;;5075847;28;20415;-40
2022/12/15 06:31:11;;;;;;;14.75;6.28;;;-1.30;99.90;;;;;;5061414;28;20029;-38
2022/12/15 06:33:38;;;;;;;18.15;6.82;;;-1.30;99.90;;;;;;5055553;28;20044;-33
2022/12/15 06:36:09;;;;;;;11.68;6.20;;;-1.30;99.90;;;;;;5056975;28;20032;-33
2022/12/15 06:38:35;;;;;;;11.50;5.82;;;-1.20;99.90;;;;;;5056362;28;20548;-31
2022/12/15 06:41:21;;;;;;;9.30;5.75;;;-1.20;99.90;;;;;;5056267;28;20028;-43
2022/12/15 06:43:57;;;;;;;13.38;6.65;;;-1.20;99.90;;;;;;5055711;28;20059;-43
2022/12/15 06:46:24;;;;;;;14.13;5.57;;;-1.30;99.90;;;;;;5068954;28;20040;-39
2022/12/15 06:48:49;;;;;;;12.43;5.72;;;-1.20;99.90;;;;;;5075303;28;20031;-75
2022/12/15 06:51:16;;;;;;;13.77;6.35;;;-1.20;99.90;;;;;;5074611;28;20028;-41
2022/12/15 06:53:49;;;;;;;12.40;6.05;;;-1.20;99.90;;;;;;5054912;28;20056;-39
2022/12/15 06:56:30;;;;;;;13.90;6.78;;;-1.20;99.90;;;;;;5066077;28;20043;-40
2022/12/15 06:58:57;;;;;;;15.50;6.97;;;-1.10;99.90;;;;;;5053959;28;20492;-43
2022/12/15 07:01:23;;;;;;;12.18;6.40;;;-1.10;99.90;;;;;;5055138;28;20025;-40
2022/12/15 07:03:50;;;;;;;16.27;6.38;;;-1.10;99.90;;;;;;5053470;28;20039;-39
2022/12/15 07:06:16;;;;;;;12.23;6.43;;;-1.10;99.90;;;;;;5054155;28;20055;-41
2022/12/15 07:08:43;;;;;;;15.07;6.43;;;-1.00;99.90;;;;;;5055305;28;20431;-41
2022/12/15 07:11:11;;;;;;;15.32;7.22;;;-1.00;99.90;;;;;;5054910;28;20512;-39
2022/12/15 07:13:37;;;;;;;11.43;6.50;;;-1.00;99.90;;;;;;5053594;28;20037;-39
2022/12/15 07:16:05;;;;;;;17.05;6.45;;;-1.00;99.90;;;;;;5055559;28;20353;-40
2022/12/15 07:18:31;;;;;;;17.50;6.30;;;-1.00;99.90;;;;;;5057102;28;20162;-41
2022/12/15 07:21:02;;;;;;;15.75;7.43;;;-0.90;99.90;;;;;;5062151;28;20495;-44
2022/12/15 07:23:28;;;;;;;11.25;6.32;;;-0.90;99.90;;;;;;5054473;28;20025;-40
2022/12/15 07:25:53;;;;;;;16.13;6.20;;;-1.00;99.90;;;;;;5055117;28;20029;-37
2022/12/15 07:28:19;;;;;;;16.05;7.47;;;-0.90;99.90;;;;;;5054268;28;20140;-33
2022/12/15 07:30:45;;;;;;;16.20;6.70;;;-1.00;99.90;;;;;;5058963;28;20028;-35
2022/12/15 07:33:10;;;;;;;13.10;6.68;;;-0.90;99.90;;;;;;5074781;28;20025;-37
2022/12/15 07:35:36;;;;;;;13.73;6.53;;;-0.90;99.90;;;;;;5061882;28;20037;-32
2022/12/15 07:38:05;;;;;;;14.63;7.03;;;-0.90;99.90;;;;;;5054897;28;20021;-36
2022/12/15 07:40:31;;;;;;;13.82;6.68;;;-0.80;99.90;;;;;;5053751;28;20044;-33
2022/12/15 07:42:57;;;;;;;22.30;7.47;;;-0.80;99.90;;;;;;5057651;28;20033;-30
2022/12/15 07:45:22;;;;;;;15.57;7.32;;;-0.70;99.90;;;;;;5074142;28;20392;-54
2022/12/15 07:47:49;;;;;;;17.15;6.68;;;-0.70;99.90;;;;;;5073998;28;20017;-32
2022/12/15 07:50:16;;;;;;;11.40;6.57;;;-0.70;99.90;;;;;;5058815;28;20397;-33
2022/12/15 07:52:42;;;;;;;18.55;7.43;;;-0.70;99.90;;;;;;5074268;28;20094;-34
2022/12/15 07:55:08;;;;;;;16.52;6.38;;;-0.80;99.90;;;;;;5067702;28;20025;-41
2022/12/15 07:57:33;;;;;;;18.80;7.30;;;-0.80;99.90;;;;;;5054002;28;20035;-41
2022/12/15 07:59:59;;;;;;;14.02;6.45;;;-0.80;99.90;;;;;;5056519;28;20116;-34
2022/12/15 08:02:25;;;;;;;14.88;6.70;;;-0.80;99.90;;;;;;5053599;28;20045;-44
2022/12/15 08:04:50;;;;;;;14.60;6.40;;;-0.80;99.90;;;;;;5054542;28;20029;-32
2022/12/15 08:07:16;;;;;;;12.90;7.15;;;-0.70;99.90;;;;;;5072741;28;20412;-32
2022/12/15 08:09:41;;;;;;;14.27;6.30;;;-0.70;99.90;;;;;;5073735;28;20034;-34
2022/12/15 08:12:07;;;;;;;14.30;6.13;;;-0.70;99.90;;;;;;5074007;28;20063;-36
2022/12/15 08:14:33;;;;;;;13.65;7.28;;;-0.70;99.90;;;;;;5073874;28;20040;-41
2022/12/15 08:16:59;;;;;;;14.82;6.97;;;-0.70;99.90;;;;;;5067609;28;20033;-34
2022/12/15 08:19:25;;;;;;;18.23;7.03;;;-0.70;99.90;;;;;;5053536;28;20029;-34
2022/12/15 08:21:50;;;;;;;16.38;6.68;;;-0.70;99.90;;;;;;5067363;28;20021;-41
2022/12/15 08:24:18;;;;;;;14.13;6.63;;;-0.60;99.90;;;;;;5056685;28;20032;-44
2022/12/15 08:26:44;;;;;;;14.98;5.78;;;-0.60;99.90;;;;;;5061311;28;20035;-41
2022/12/15 08:29:11;;;;;;;13.38;6.60;;;-0.60;99.90;;;;;;5062975;28;20107;-43
2022/12/15 08:31:37;;;;;;;17.20;6.17;;;-0.50;99.90;;;;;;5065262;28;20024;-42
2022/12/15 08:34:04;;;;;;;16.50;7.85;;;-0.50;99.90;;;;;;5062392;28;20308;-43
2022/12/15 08:36:31;;;;;;;14.07;7.43;;;-0.50;99.90;;;;;;5058571;28;20037;-41
2022/12/15 08:38:58;;;;;;;19.92;7.78;;;-0.40;99.90;;;;;;5057141;28;20052;-42
2022/12/15 08:41:26;;;;;;;21.05;7.47;;;-0.30;99.90;;;;;;5052786;28;20039;-42
2022/12/15 08:43:55;;;;;;;17.35;8.23;;;-0.30;99.90;;;;;;5064123;28;20054;-40
2022/12/15 08:46:24;;;;;;;17.45;8.18;;;-0.30;99.90;;;;;;5069582;28;20016;-41
2022/12/15 08:48:51;;;;;;;16.60;7.13;;;-0.20;99.90;;;;;;5054330;28;20116;-42
2022/12/15 08:51:17;;;;;;;20.38;7.55;;;-0.10;99.90;;;;;;5068167;28;20050;-41
2022/12/15 08:53:43;;;;;;;18.17;7.32;;;-0.10;99.90;;;;;;5064243;28;20108;-42
2022/12/15 08:56:18;;;;;;;15.70;7.22;;;0.00;99.90;;;;;;5053028;28;20036;-38
2022/12/15 08:58:45;;;;;;;19.23;7.93;;;0.00;99.90;;;;;;5059245;28;20504;-42
2022/12/15 09:01:15;;;;;;;17.30;8.25;;;0.10;99.90;;;;;;5054882;28;20066;-40
2022/12/15 09:03:42;;;;;;;20.65;7.30;;;0.10;99.90;;;;;;5054098;28;20173;-43
2022/12/15 09:06:13;;;;;;;20.40;7.35;;;0.20;99.90;;;;;;5052901;28;20396;-40
2022/12/15 09:08:38;;;;;;;16.48;8.35;;;0.30;99.90;;;;;;5058740;28;20024;-44
2022/12/15 09:11:04;;;;;;;21.02;8.70;;;0.30;99.90;;;;;;5068892;28;20028;-38
2022/12/15 09:13:30;;;;;;;16.90;7.47;;;0.30;99.90;;;;;;5060183;28;20021;-44
2022/12/15 09:16:01;;;;;;;18.75;8.30;;;0.40;99.90;;;;;;5056047;28;20033;-44
2022/12/15 09:18:27;;;;;;;17.58;7.78;;;0.40;99.90;;;;;;5054653;28;20378;-43
2022/12/15 09:20:53;;;;;;;19.75;8.13;;;0.40;99.90;;;;;;5053062;28;20027;-44
2022/12/15 09:23:22;;;;;;;19.05;7.60;;;0.50;99.90;;;;;;5057805;28;20044;-43
2022/12/15 09:25:48;;;;;;;17.38;7.88;;;0.60;99.90;;;;;;5069212;28;20028;-40
2022/12/15 09:28:13;;;;;;;23.83;8.55;;;0.60;99.90;;;;;;5053962;28;20021;-41
2022/12/15 09:30:39;;;;;;;19.42;8.48;;;0.70;99.90;;;;;;5059509;28;20056;-43
2022/12/15 09:33:05;;;;;;;19.30;7.90;;;0.70;99.90;;;;;;5068015;28;20562;-42
2022/12/15 09:35:31;;;;;;;16.30;7.32;;;0.80;99.90;;;;;;5056915;28;20029;-42
2022/12/15 09:37:56;;;;;;;22.52;8.57;;;0.80;99.90;;;;;;5071784;28;20063;-43
2022/12/15 09:40:23;;;;;;;25.17;9.52;;;0.90;99.90;;;;;;5072295;28;20028;-40
2022/12/15 09:42:55;;;;;;;18.50;7.90;;;1.00;99.90;;;;;;5061657;28;20024;-42
2022/12/15 09:45:25;;;;;;;25.38;8.05;;;1.00;99.90;;;;;;5056734;28;20431;-43
2022/12/15 09:48:14;;;;;;;20.13;8.00;;;1.00;99.90;;;;;;5056934;28;20025;-39
2022/12/15 09:50:43;;;;;;;19.73;7.78;;;1.00;99.90;;;;;;5063270;28;20028;-31
2022/12/15 09:53:12;;;;;;;18.27;7.90;;;1.10;99.90;;;;;;5074781;28;20052;-44
2022/12/15 09:55:38;;;;;;;23.88;9.23;;;1.20;99.90;;;;;;5071451;28;20533;-39
2022/12/15 09:58:27;;;;;;;21.08;8.63;;;1.30;99.90;;;;;;5065411;28;20377;-32
2022/12/15 10:01:16;;;;;;;16.25;7.50;;;1.40;99.90;;;;;;5054400;28;20037;-31
2022/12/15 10:04:04;;;;;;;17.70;8.55;;;1.40;99.90;;;;;;5060489;28;20037;-33
2022/12/15 10:06:48;;;;;;;21.92;7.82;;;1.50;99.90;;;;;;5062126;28;20116;-35
2022/12/15 10:09:22;;;;;;;23.73;9.23;;;1.50;99.90;;;;;;5056074;28;20111;-35
2022/12/15 10:11:59;;;;;;;20.90;9.05;;;1.50;99.90;;;;;;5066266;28;20023;-36
2022/12/15 10:14:38;;;;;;;35.83;9.10;;;1.50;99.90;;;;;;5075946;28;20025;-34
2022/12/15 10:17:22;;;;;;;18.60;8.30;;;1.50;99.90;;;;;;5076009;28;20017;-32
2022/12/15 10:19:56;;;;;;;21.33;8.05;;;1.50;99.90;;;;;;5075932;28;20487;-39
2022/12/15 10:22:29;;;;;;;15.07;7.10;;;1.60;99.90;;;;;;5075980;28;20498;-38
2022/12/15 10:24:55;;;;;;;17.38;9.23;;;1.70;99.90;;;;;;5075935;28;20020;-31
2022/12/15 10:27:45;;;;;;;24.25;8.77;;;1.90;99.90;;;;;;5076021;28;20027;-39
2022/12/15 10:30:12;;;;;;;20.67;8.77;;;2.10;99.90;;;;;;5075761;28;20025;-31
2022/12/15 10:32:43;;;;;;;20.08;9.32;;;2.30;99.90;;;;;;5075715;28;20024;-31
2022/12/15 10:35:17;;;;;;;18.48;8.32;;;2.40;99.90;;;;;;5075498;28;20017;-40
2022/12/15 10:37:42;;;;;;;22.80;9.88;;;2.60;99.90;;;;;;5075578;28;20487;-33
2022/12/15 10:40:13;;;;;;;22.60;9.63;;;2.70;99.90;;;;;;5074488;28;20025;-33
2022/12/15 10:42:49;;;;;;;17.67;8.35;;;2.80;99.90;;;;;;5075344;28;20538;-36
2022/12/15 10:45:36;;;;;;;18.77;8.55;;;2.90;99.90;;;;;;5075505;28;20481;-33
2022/12/15 10:48:05;;;;;;;18.90;8.97;;;2.90;99.90;;;;;;5075665;28;20473;-42
2022/12/15 10:50:32;;;;;;;17.30;8.80;;;2.90;99.90;;;;;;5075611;28;20747;-34
2022/12/15 10:52:58;;;;;;;17.55;8.80;;;2.80;99.90;;;;;;5075515;28;20086;-39
2022/12/15 10:55:42;;;;;;;17.63;8.52;;;2.80;99.90;;;;;;5075148;28;20024;-38
2022/12/15 10:58:20;;;;;;;22.30;9.10;;;2.80;99.90;;;;;;5075199;28;20025;-31
2022/12/15 11:00:46;;;;;;;21.05;8.68;;;2.80;99.90;;;;;;5075056;28;20110;-40
2022/12/15 11:03:23;;;;;;;21.52;8.88;;;2.80;99.90;;;;;;5074892;28;20033;-35
2022/12/15 11:05:54;;;;;;;19.02;7.80;;;2.80;99.90;;;;;;5075112;28;20027;-35
2022/12/15 11:08:21;;;;;;;22.25;8.40;;;2.90;99.90;;;;;;5075011;28;20027;-31
2022/12/15 11:14:12;;;;;;;16.77;7.85;;;2.90;99.90;;;;;;5072732;28;20024;-31
2022/12/15 11:17:05;;;;;;;21.65;8.95;;;2.90;99.90;;;;;;5072644;28;20121;-36
2022/12/15 11:19:55;;;;;;;19.23;8.43;;;2.90;99.90;;;;;;5055961;28;20072;-31
2022/12/15 11:22:44;;;;;;;22.15;9.00;;;3.00;99.90;;;;;;5058065;28;20050;-31
2022/12/15 11:25:34;;;;;;;19.27;9.63;;;3.00;99.90;;;;;;5066448;28;20067;-44
2022/12/15 11:28:04;;;;;;;24.15;10.15;;;3.10;99.90;;;;;;5068408;28;20534;-35
2022/12/15 11:30:37;;;;;;;25.25;8.30;;;3.10;99.90;;;;;;5056586;28;20029;-31
2022/12/15 11:33:02;;;;;;;16.85;8.90;;;3.20;99.90;;;;;;5065832;28;20035;-31
2022/12/15 11:35:49;;;;;;;24.42;10.68;;;3.30;99.90;;;;;;5073166;28;20455;-31
2022/12/15 11:38:33;;;;;;;24.02;8.60;;;3.30;99.90;;;;;;5068921;28;20445;-38
2022/12/15 11:41:10;;;;;;;28.27;9.73;;;3.30;99.90;;;;;;5054169;28;20139;-59
2022/12/15 11:43:54;;;;;;;22.27;9.88;;;3.20;99.90;;;;;;5063429;28;20035;-35
2022/12/15 11:46:38;;;;;;;22.73;9.05;;;3.10;99.90;;;;;;5074223;28;20381;-31
2022/12/15 11:49:22;;;;;;;20.02;9.82;;;3.00;99.90;;;;;;5068720;28;20025;-31
2022/12/15 11:52:07;;;;;;;24.55;10.18;;;3.00;99.90;;;;;;5067397;28;20488;-31
2022/12/15 11:55:00;;;;;;;35.67;9.95;;;3.00;99.90;;;;;;5064975;28;20040;-31
2022/12/15 11:57:43;;;;;;;22.48;10.60;;;3.00;99.90;;;;;;5069924;28;20496;-32
2022/12/15 12:00:12;;;;;;;23.88;10.20;;;3.10;99.90;;;;;;5059770;28;20492;-31
2022/12/15 12:03:01;;;;;;;19.77;9.52;;;3.20;99.90;;;;;;5065454;28;20115;-31
2022/12/15 12:05:33;;;;;;;19.23;9.88;;;3.20;99.90;;;;;;5067007;28;20492;-33
2022/12/15 12:08:15;;;;;;;27.48;10.90;;;3.20;99.90;;;;;;5055398;28;20028;-31
2022/12/15 12:11:12;;;;;;;25.08;11.32;;;3.20;99.90;;;;;;5065609;28;20107;-32
2022/12/15 12:14:24;;;;;;;19.08;8.27;;;3.20;99.90;;;;;;5061220;28;20103;-34
2022/12/15 12:17:03;;;;;;;19.98;10.50;;;3.20;99.90;;;;;;5044270;28;20036;-32
2022/12/15 12:19:59;;;;;;;23.90;10.45;;;3.20;99.90;;;;;;5058806;28;20071;-31
2022/12/15 12:22:31;;;;;;;35.60;10.80;;;3.20;99.90;;;;;;5052299;28;20040;-32
2022/12/15 12:24:59;;;;;;;26.25;11.93;;;3.20;99.90;;;;;;5055966;28;20484;-31
2022/12/15 12:27:38;;;;;;;22.55;10.95;;;3.30;99.90;;;;;;5060828;28;20059;-31
2022/12/15 12:30:10;;;;;;;19.50;10.52;;;3.40;99.90;;;;;;5077928;28;20318;-31
2022/12/15 12:32:47;;;;;;;25.40;9.77;;;3.40;99.90;;;;;;5062181;28;20488;-32
2022/12/15 12:35:13;;;;;;;19.00;7.72;;;3.50;99.90;;;;;;5053194;28;20025;-32
2022/12/15 12:37:57;;;;;;;23.92;10.52;;;3.60;99.90;;;;;;5066445;28;20039;-31
2022/12/15 12:40:35;;;;;;;20.75;10.20;;;3.60;99.90;;;;;;5061492;28;20057;-31
2022/12/15 12:43:02;;;;;;;22.57;9.50;;;3.70;99.90;;;;;;5052885;28;20033;-46
2022/12/15 12:45:54;;;;;;;23.08;10.35;;;3.70;99.90;;;;;;5064595;28;20013;-44
2022/12/15 12:48:37;;;;;;;22.02;9.40;;;3.70;99.90;;;;;;5072642;28;20496;-43
2022/12/15 12:51:22;;;;;;;19.48;9.48;;;3.80;99.90;;;;;;5059311;28;20615;-42
2022/12/15 12:53:48;;;;;;;28.23;10.75;;;3.80;99.90;;;;;;5069595;28;20486;-44
2022/12/15 12:56:46;;;;;;;22.13;9.70;;;3.80;99.90;;;;;;5054814;28;20028;-45
2022/12/15 12:59:29;;;;;;;24.90;9.02;;;3.80;99.90;;;;;;5053793;28;20403;-44
2022/12/15 13:02:13;;;;;;;25.27;9.43;;;3.80;99.90;;;;;;5067973;28;20036;-43
2022/12/15 13:04:41;;;;;;;21.27;9.65;;;3.80;99.90;;;;;;5069082;28;20031;-45
2022/12/15 13:07:31;;;;;;;23.58;9.77;;;3.80;99.90;;;;;;5060610;28;20523;-42
2022/12/15 13:10:18;;;;;;;24.45;10.05;;;3.80;99.90;;;;;;5064834;28;20096;-55
2022/12/15 13:12:44;;;;;;;22.23;10.82;;;3.70;99.90;;;;;;5060010;28;20488;-53
2022/12/15 13:15:22;;;;;;;18.63;9.02;;;3.70;99.90;;;;;;5052911;28;20154;-36
2022/12/15 13:17:51;;;;;;;19.80;10.13;;;3.60;99.90;;;;;;5058642;28;20024;-33
2022/12/15 13:20:20;;;;;;;19.02;9.48;;;3.60;99.90;;;;;;5064142;28;20515;-33
2022/12/15 13:22:46;;;;;;;28.75;9.60;;;3.60;99.90;;;;;;5053834;28;20485;-39
2022/12/15 13:25:35;;;;;;;19.42;9.98;;;3.60;99.90;;;;;;5050795;28;20030;-44
2022/12/15 13:28:16;;;;;;;29.83;10.48;;;3.60;99.90;;;;;;5056914;28;20473;-34
2022/12/15 13:31:21;;;;;;;21.25;9.07;;;3.60;99.90;;;;;;5055493;28;20037;-39
2022/12/15 13:33:50;;;;;;;21.58;9.52;;;3.70;99.90;;;;;;5056716;28;20430;-35
2022/12/15 13:36:40;;;;;;;21.00;9.00;;;3.70;99.90;;;;;;5067229;28;20115;-39
2022/12/15 13:39:11;;;;;;;20.08;9.32;;;3.80;99.90;;;;;;5058771;28;20035;-36
2022/12/15 13:41:41;;;;;;;20.23;8.68;;;3.90;99.90;;;;;;5062742;28;20029;-35
2022/12/15 13:44:15;;;;;;;17.73;9.00;;;4.00;99.90;;;;;;5060936;28;20535;-32
2022/12/15 13:46:45;;;;;;;25.83;9.38;;;4.00;99.90;;;;;;5056037;28;20374;-39
2022/12/15 13:49:29;;;;;;;22.58;9.40;;;4.10;99.90;;;;;;5057887;28;20025;-38
2022/12/15 13:52:02;;;;;;;18.63;8.55;;;4.00;99.90;;;;;;5053353;28;20478;-33
2022/12/15 13:54:34;;;;;;;17.05;8.85;;;4.10;99.90;;;;;;5060690;28;20037;-41
2022/12/15 13:57:14;;;;;;;17.48;8.35;;;4.20;99.90;;;;;;5051426;28;20068;-42
2022/12/15 13:59:49;;;;;;;19.20;9.18;;;4.20;99.90;;;;;;5070010;28;20029;-43
2022/12/15 14:02:29;;;;;;;21.42;8.60;;;4.20;99.90;;;;;;5055350;28;20485;-42
2022/12/15 14:05:13;;;;;;;16.80;8.25;;;4.10;99.90;;;;;;5063345;28;20025;-44
2022/12/15 14:07:41;;;;;;;20.45;10.05;;;4.10;99.90;;;;;;5072778;28;20484;-42
2022/12/15 14:10:15;;;;;;;;;;;4.10;99.90;;;;;;5070965;28;20067;-47
2022/12/15 14:12:41;;;;;;;18.88;8.63;;;4.10;99.90;;;;;;5072292;28;19916;-42
2022/12/15 14:15:15;;;;;;;18.00;9.38;;;4.10;99.90;;;;;;5057309;28;20029;-44
2022/12/15 14:17:41;;;;;;;23.20;8.90;;;4.10;99.90;;;;;;5055845;28;20043;-42
2022/12/15 14:20:16;;;;;;;15.88;8.07;;;4.10;99.90;;;;;;5056018;28;20534;-41
2022/12/15 14:22:42;;;;;;;29.75;9.73;;;4.10;99.90;;;;;;5055886;28;20025;-42
2022/12/15 14:25:19;;;;;;;20.80;7.97;;;4.00;99.90;;;;;;5054084;28;20032;-41
2022/12/15 14:27:45;;;;;;;23.08;8.85;;;4.00;99.90;;;;;;5056049;28;20380;-45
2022/12/15 14:30:31;;;;;;;21.05;9.18;;;4.00;99.90;;;;;;5056369;28;20067;-40
2022/12/15 14:33:14;;;;;;;23.33;8.88;;;4.00;99.90;;;;;;5075925;28;20365;-42
2022/12/15 14:35:52;;;;;;;20.13;8.15;;;4.00;99.90;;;;;;5075961;28;20028;-44
2022/12/15 14:38:38;;;;;;;20.27;8.70;;;4.00;99.90;;;;;;5065605;28;20473;-42
2022/12/15 14:41:05;;;;;;;18.60;8.35;;;3.90;99.90;;;;;;5063605;28;20477;-43
2022/12/15 14:43:36;;;;;;;17.88;8.38;;;3.90;99.90;;;;;;5073954;28;20025;-43
2022/12/15 14:46:13;;;;;;;20.08;8.93;;;3.90;99.90;;;;;;5071020;28;20044;-44
2022/12/15 14:48:43;;;;;;;21.42;9.43;;;3.90;99.90;;;;;;5070891;28;20424;-44
2022/12/15 14:51:11;;;;;;;22.08;9.77;;;3.90;99.90;;;;;;5065749;28;20468;-43
2022/12/15 14:53:40;;;;;;;17.63;8.55;;;3.80;99.90;;;;;;5073486;28;20526;-43
2022/12/15 14:56:17;;;;;;;21.13;10.38;;;3.70;99.90;;;;;;5065826;28;20149;-39
2022/12/15 14:59:04;;;;;;;18.70;9.95;;;3.60;99.90;;;;;;5057477;28;20033;-41
2022/12/15 15:01:38;;;;;;;27.73;9.75;;;3.60;99.90;;;;;;5058440;28;20542;-43
2022/12/15 15:04:19;;;;;;;26.38;9.25;;;3.50;99.90;;;;;;5068599;28;21804;-41
2022/12/15 15:06:44;;;;;;;19.92;9.52;;;3.40;99.90;;;;;;5060928;28;20157;-42
2022/12/15 15:09:23;;;;;;;19.60;9.80;;;3.40;99.90;;;;;;5059985;28;20029;-42
2022/12/15 15:11:54;;;;;;;18.30;9.73;;;3.30;99.90;;;;;;5067757;28;20067;-41
2022/12/15 15:14:31;;;;;;;22.77;8.50;;;3.30;99.90;;;;;;5056690;28;20429;-42
2022/12/15 15:17:03;;;;;;;17.90;9.23;;;3.30;99.90;;;;;;5063062;28;20038;-45
2022/12/15 15:19:29;;;;;;;21.65;10.20;;;3.30;99.90;;;;;;5074767;28;20032;-43
2022/12/15 15:21:57;;;;;;;24.15;10.60;;;3.20;99.90;;;;;;5073658;28;20097;-46
2022/12/15 15:24:28;;;;;;;18.02;9.93;;;3.20;99.90;;;;;;5074745;28;20033;-41
2022/12/15 15:27:14;;;;;;;24.73;10.35;;;3.10;99.90;;;;;;5072599;28;20052;-43
2022/12/15 15:29:40;;;;;;;22.65;10.73;;;3.10;99.90;;;;;;5061675;28;20508;-43
2022/12/15 15:32:14;;;;;;;27.48;10.90;;;3.00;99.90;;;;;;5053598;28;20028;-42
2022/12/15 15:34:40;;;;;;;22.80;10.52;;;2.90;99.90;;;;;;5054478;28;20485;-44